sensor_id;sensor_type;location;lat;lon;timestamp;temperature;humidity
45983;DHT22;31711;47.158;7.346;2022-09-09T00:02:05;15.00;99.90
45983;DHT22;31711;47.158;7.346;2022-09-09T00:04:35;14.90;99.90
45983;DHT22;31711;47.158;7.346;2022-09-09T00:07:21;14.90;99.90
45983;DHT22;31711;47.158;7.346;2022-09-09T00:10:03;14.90;99.90
45983;DHT22;31711;47.158;7.346;2022-09-09T00:12:41;14.80;99.90
45983;DHT22;31711;47.158;7.346;2022-09-09T00:15:14;14.80;99.90
45983;DHT22;31711;47.158;7.346;2022-09-09T00:20:35;14.70;99.90
45983;DHT22;31711;47.158;7.346;2022-09-09T00:23:18;14.70;99.90
45983;DHT22;31711;47.158;7.346;2022-09-09T00:28:19;14.90;99.90
45983;DHT22;31711;47.158;7.346;2022-09-09T00:30:46;14.90;99.90
45983;DHT22;31711;47.158;7.346;2022-09-09T00:33:22;15.00;99.90
45983;DHT22;31711;47.158;7.346;2022-09-09T00:35:51;15.00;99.90
45983;DHT22;31711;47.158;7.346;2022-09-09T00:38:31;15.00;99.90
45983;DHT22;31711;47.158;7.346;2022-09-09T00:41:13;15.00;99.90
45983;DHT22;31711;47.158;7.346;2022-09-09T00:43:41;15.00;99.90
45983;DHT22;31711;47.158;7.346;2022-09-09T00:54:08;14.80;99.90
45983;DHT22;31711;47.158;7.346;2022-09-09T00:56:46;14.90;99.90
45983;DHT22;31711;47.158;7.346;2022-09-09T00:59:48;14.90;99.90
45983;DHT22;31711;47.158;7.346;2022-09-09T01:03:10;14.80;99.90
45983;DHT22;31711;47.158;7.346;2022-09-09T01:05:13;14.90;99.90
45983;DHT22;31711;47.158;7.346;2022-09-09T01:07:44;14.90;99.90
45983;DHT22;31711;47.158;7.346;2022-09-09T01:10:41;15.00;99.90
45983;DHT22;31711;47.158;7.346;2022-09-09T01:13:22;14.90;99.90
45983;DHT22;31711;47.158;7.346;2022-09-09T01:15:49;15.00;99.90
45983;DHT22;31711;47.158;7.346;2022-09-09T01:18:17;14.90;99.90
45983;DHT22;31711;47.158;7.346;2022-09-09T01:24:04;14.90;99.90
45983;DHT22;31711;47.158;7.346;2022-09-09T01:26:41;14.90;99.90
45983;DHT22;31711;47.158;7.346;2022-09-09T01:29:14;15.00;99.90
45983;DHT22;31711;47.158;7.346;2022-09-09T01:31:51;15.00;99.90
45983;DHT22;31711;47.158;7.346;2022-09-09T01:34:18;15.10;99.90
45983;DHT22;31711;47.158;7.346;2022-09-09T01:36:46;15.10;99.90
45983;DHT22;31711;47.158;7.346;2022-09-09T01:39:17;15.00;99.90
45983;DHT22;31711;47.158;7.346;2022-09-09T01:41:43;15.00;99.90
45983;DHT22;31711;47.158;7.346;2022-09-09T01:44:09;15.00;99.90
45983;DHT22;31711;47.158;7.346;2022-09-09T01:46:36;15.00;99.90
45983;DHT22;31711;47.158;7.346;2022-09-09T01:49:03;15.00;99.90
45983;DHT22;31711;47.158;7.346;2022-09-09T01:51:30;15.00;99.90
45983;DHT22;31711;47.158;7.346;2022-09-09T01:53:56;14.90;99.90
45983;DHT22;31711;47.158;7.346;2022-09-09T01:56:53;14.90;99.90
45983;DHT22;31711;47.158;7.346;2022-09-09T02:02:32;15.00;99.90
45983;DHT22;31711;47.158;7.346;2022-09-09T02:05:12;15.00;99.90
45983;DHT22;31711;47.158;7.346;2022-09-09T02:07:45;15.10;99.90
45983;DHT22;31711;47.158;7.346;2022-09-09T02:10:25;15.10;99.90
45983;DHT22;31711;47.158;7.346;2022-09-09T02:13:02;15.00;99.90
45983;DHT22;31711;47.158;7.346;2022-09-09T02:15:34;15.10;99.90
45983;DHT22;31711;47.158;7.346;2022-09-09T02:18:04;15.10;99.90
45983;DHT22;31711;47.158;7.346;2022-09-09T02:20:36;15.00;99.90
45983;DHT22;31711;47.158;7.346;2022-09-09T02:23:04;15.00;99.90
45983;DHT22;31711;47.158;7.346;2022-09-09T02:25:33;15.00;99.90
45983;DHT22;31711;47.158;7.346;2022-09-09T02:28:03;15.00;99.90
45983;DHT22;31711;47.158;7.346;2022-09-09T02:30:33;14.90;99.90
45983;DHT22;31711;47.158;7.346;2022-09-09T02:33:01;14.90;99.90
45983;DHT22;31711;47.158;7.346;2022-09-09T02:35:29;14.90;99.90
45983;DHT22;31711;47.158;7.346;2022-09-09T02:37:59;15.00;99.90
45983;DHT22;31711;47.158;7.346;2022-09-09T02:40:25;15.00;99.90
45983;DHT22;31711;47.158;7.346;2022-09-09T02:42:51;14.90;99.90
45983;DHT22;31711;47.158;7.346;2022-09-09T02:45:24;15.00;99.90
45983;DHT22;31711;47.158;7.346;2022-09-09T02:51:36;15.10;99.90
45983;DHT22;31711;47.158;7.346;2022-09-09T02:54:27;15.10;99.90
45983;DHT22;31711;47.158;7.346;2022-09-09T02:57:21;15.10;99.90
45983;DHT22;31711;47.158;7.346;2022-09-09T02:59:49;15.20;99.90
45983;DHT22;31711;47.158;7.346;2022-09-09T03:02:15;15.20;99.90
45983;DHT22;31711;47.158;7.346;2022-09-09T03:04:41;15.20;99.90
45983;DHT22;31711;47.158;7.346;2022-09-09T03:07:11;15.30;99.90
45983;DHT22;31711;47.158;7.346;2022-09-09T03:09:37;15.30;99.90
45983;DHT22;31711;47.158;7.346;2022-09-09T03:12:03;15.30;99.90
45983;DHT22;31711;47.158;7.346;2022-09-09T03:14:30;15.40;99.90
45983;DHT22;31711;47.158;7.346;2022-09-09T03:16:56;15.40;99.90
45983;DHT22;31711;47.158;7.346;2022-09-09T03:19:26;15.40;99.90
45983;DHT22;31711;47.158;7.346;2022-09-09T03:21:53;15.40;99.90
45983;DHT22;31711;47.158;7.346;2022-09-09T03:24:20;15.40;99.90
45983;DHT22;31711;47.158;7.346;2022-09-09T03:26:45;15.40;99.90
45983;DHT22;31711;47.158;7.346;2022-09-09T03:29:13;15.40;99.90
45983;DHT22;31711;47.158;7.346;2022-09-09T03:31:39;15.30;99.90
45983;DHT22;31711;47.158;7.346;2022-09-09T03:34:05;15.30;99.90
45983;DHT22;31711;47.158;7.346;2022-09-09T03:36:31;15.30;99.90
45983;DHT22;31711;47.158;7.346;2022-09-09T03:38:57;15.30;99.90
45983;DHT22;31711;47.158;7.346;2022-09-09T03:41:24;15.40;99.90
45983;DHT22;31711;47.158;7.346;2022-09-09T03:43:50;15.30;99.90
45983;DHT22;31711;47.158;7.346;2022-09-09T03:46:18;15.30;99.90
45983;DHT22;31711;47.158;7.346;2022-09-09T03:48:44;15.30;99.90
45983;DHT22;31711;47.158;7.346;2022-09-09T03:51:11;15.20;99.90
45983;DHT22;31711;47.158;7.346;2022-09-09T03:53:37;15.20;99.90
45983;DHT22;31711;47.158;7.346;2022-09-09T03:56:04;15.30;99.90
45983;DHT22;31711;47.158;7.346;2022-09-09T03:58:36;15.20;99.90
45983;DHT22;31711;47.158;7.346;2022-09-09T04:01:07;15.20;99.90
45983;DHT22;31711;47.158;7.346;2022-09-09T04:03:34;15.20;99.90
45983;DHT22;31711;47.158;7.346;2022-09-09T04:06:04;15.20;99.90
45983;DHT22;31711;47.158;7.346;2022-09-09T04:08:30;15.10;99.90
45983;DHT22;31711;47.158;7.346;2022-09-09T04:11:00;15.10;99.90
45983;DHT22;31711;47.158;7.346;2022-09-09T04:13:28;15.20;99.90
45983;DHT22;31711;47.158;7.346;2022-09-09T04:15:56;15.20;99.90
45983;DHT22;31711;47.158;7.346;2022-09-09T04:18:23;15.20;99.90
45983;DHT22;31711;47.158;7.346;2022-09-09T04:20:50;15.30;99.90
45983;DHT22;31711;47.158;7.346;2022-09-09T04:23:17;15.30;99.90
45983;DHT22;31711;47.158;7.346;2022-09-09T04:25:50;15.40;99.90
45983;DHT22;31711;47.158;7.346;2022-09-09T04:28:18;15.30;99.90
45983;DHT22;31711;47.158;7.346;2022-09-09T04:30:44;15.20;99.90
45983;DHT22;31711;47.158;7.346;2022-09-09T04:33:11;15.00;99.90
45983;DHT22;31711;47.158;7.346;2022-09-09T04:35:38;15.00;99.90
45983;DHT22;31711;47.158;7.346;2022-09-09T04:38:05;15.00;99.90
45983;DHT22;31711;47.158;7.346;2022-09-09T04:40:33;15.10;99.90
45983;DHT22;31711;47.158;7.346;2022-09-09T04:43:00;15.10;99.90
45983;DHT22;31711;47.158;7.346;2022-09-09T04:45:27;15.10;99.90
45983;DHT22;31711;47.158;7.346;2022-09-09T04:47:53;15.20;99.90
45983;DHT22;31711;47.158;7.346;2022-09-09T04:50:19;15.30;99.90
45983;DHT22;31711;47.158;7.346;2022-09-09T04:52:45;15.30;99.90
45983;DHT22;31711;47.158;7.346;2022-09-09T04:55:11;15.40;99.90
45983;DHT22;31711;47.158;7.346;2022-09-09T04:57:39;15.40;99.90
45983;DHT22;31711;47.158;7.346;2022-09-09T05:00:06;15.40;99.90
45983;DHT22;31711;47.158;7.346;2022-09-09T05:02:32;15.40;99.90
45983;DHT22;31711;47.158;7.346;2022-09-09T05:04:58;15.30;99.90
45983;DHT22;31711;47.158;7.346;2022-09-09T05:07:24;15.40;99.90
45983;DHT22;31711;47.158;7.346;2022-09-09T05:09:52;15.40;99.90
45983;DHT22;31711;47.158;7.346;2022-09-09T05:12:19;15.40;99.90
45983;DHT22;31711;47.158;7.346;2022-09-09T05:14:45;15.30;99.90
45983;DHT22;31711;47.158;7.346;2022-09-09T05:17:11;15.10;99.90
45983;DHT22;31711;47.158;7.346;2022-09-09T05:19:37;15.00;99.90
45983;DHT22;31711;47.158;7.346;2022-09-09T05:22:02;14.90;99.90
45983;DHT22;31711;47.158;7.346;2022-09-09T05:24:28;14.90;99.90
45983;DHT22;31711;47.158;7.346;2022-09-09T05:26:55;15.00;99.90
45983;DHT22;31711;47.158;7.346;2022-09-09T05:29:23;15.00;99.90
45983;DHT22;31711;47.158;7.346;2022-09-09T05:31:49;15.00;99.90
45983;DHT22;31711;47.158;7.346;2022-09-09T05:34:15;15.00;99.90
45983;DHT22;31711;47.158;7.346;2022-09-09T05:36:41;15.00;99.90
45983;DHT22;31711;47.158;7.346;2022-09-09T05:39:07;15.10;99.90
45983;DHT22;31711;47.158;7.346;2022-09-09T05:41:33;15.20;99.90
45983;DHT22;31711;47.158;7.346;2022-09-09T05:43:58;15.30;99.90
45983;DHT22;31711;47.158;7.346;2022-09-09T05:46:26;15.40;99.90
45983;DHT22;31711;47.158;7.346;2022-09-09T05:48:53;15.40;99.90
45983;DHT22;31711;47.158;7.346;2022-09-09T05:51:22;15.40;99.90
45983;DHT22;31711;47.158;7.346;2022-09-09T05:53:49;15.50;99.90
45983;DHT22;31711;47.158;7.346;2022-09-09T05:56:18;15.50;99.90
45983;DHT22;31711;47.158;7.346;2022-09-09T05:58:45;15.50;99.90
45983;DHT22;31711;47.158;7.346;2022-09-09T06:01:22;15.50;99.90
45983;DHT22;31711;47.158;7.346;2022-09-09T06:03:49;15.50;99.90
45983;DHT22;31711;47.158;7.346;2022-09-09T06:06:42;15.50;99.90
45983;DHT22;31711;47.158;7.346;2022-09-09T06:09:09;15.50;99.90
45983;DHT22;31711;47.158;7.346;2022-09-09T06:11:38;15.50;99.90
45983;DHT22;31711;47.158;7.346;2022-09-09T06:14:04;15.40;99.90
45983;DHT22;31711;47.158;7.346;2022-09-09T06:16:31;15.40;99.90
45983;DHT22;31711;47.158;7.346;2022-09-09T06:19:00;15.40;99.90
45983;DHT22;31711;47.158;7.346;2022-09-09T06:21:32;15.40;99.90
45983;DHT22;31711;47.158;7.346;2022-09-09T06:23:59;15.30;99.90
45983;DHT22;31711;47.158;7.346;2022-09-09T06:26:27;15.40;99.90
45983;DHT22;31711;47.158;7.346;2022-09-09T06:28:55;15.50;99.90
45983;DHT22;31711;47.158;7.346;2022-09-09T06:31:23;15.50;99.90
45983;DHT22;31711;47.158;7.346;2022-09-09T06:33:51;15.60;99.90
45983;DHT22;31711;47.158;7.346;2022-09-09T06:36:20;15.70;99.90
45983;DHT22;31711;47.158;7.346;2022-09-09T06:38:46;15.80;99.90
45983;DHT22;31711;47.158;7.346;2022-09-09T06:41:15;15.90;99.90
45983;DHT22;31711;47.158;7.346;2022-09-09T06:43:42;15.90;99.90
45983;DHT22;31711;47.158;7.346;2022-09-09T06:46:19;16.00;99.90
45983;DHT22;31711;47.158;7.346;2022-09-09T06:48:45;16.20;99.90
45983;DHT22;31711;47.158;7.346;2022-09-09T06:51:21;16.50;99.90
45983;DHT22;31711;47.158;7.346;2022-09-09T06:53:51;16.70;99.90
45983;DHT22;31711;47.158;7.346;2022-09-09T06:58:50;16.70;99.90
45983;DHT22;31711;47.158;7.346;2022-09-09T07:01:18;16.60;99.90
45983;DHT22;31711;47.158;7.346;2022-09-09T07:03:47;16.70;99.90
45983;DHT22;31711;47.158;7.346;2022-09-09T07:06:16;16.60;99.90
45983;DHT22;31711;47.158;7.346;2022-09-09T07:08:58;16.70;99.90
45983;DHT22;31711;47.158;7.346;2022-09-09T07:11:30;16.60;99.90
45983;DHT22;31711;47.158;7.346;2022-09-09T07:13:58;16.70;99.90
45983;DHT22;31711;47.158;7.346;2022-09-09T07:16:24;16.90;99.90
45983;DHT22;31711;47.158;7.346;2022-09-09T07:18:52;17.00;99.90
45983;DHT22;31711;47.158;7.346;2022-09-09T07:21:18;17.10;99.90
45983;DHT22;31711;47.158;7.346;2022-09-09T07:23:46;17.00;99.90
45983;DHT22;31711;47.158;7.346;2022-09-09T07:26:14;17.00;99.90
45983;DHT22;31711;47.158;7.346;2022-09-09T07:28:41;17.10;99.90
45983;DHT22;31711;47.158;7.346;2022-09-09T07:31:12;17.10;99.90
45983;DHT22;31711;47.158;7.346;2022-09-09T07:33:39;17.00;99.90
45983;DHT22;31711;47.158;7.346;2022-09-09T07:36:09;17.20;99.90
45983;DHT22;31711;47.158;7.346;2022-09-09T07:38:43;17.30;99.90
45983;DHT22;31711;47.158;7.346;2022-09-09T07:41:16;17.40;99.90
45983;DHT22;31711;47.158;7.346;2022-09-09T07:43:45;17.70;99.90
45983;DHT22;31711;47.158;7.346;2022-09-09T07:46:13;17.90;99.90
45983;DHT22;31711;47.158;7.346;2022-09-09T07:48:47;18.10;99.90
45983;DHT22;31711;47.158;7.346;2022-09-09T07:51:19;18.40;99.90
45983;DHT22;31711;47.158;7.346;2022-09-09T07:53:47;18.60;99.90
45983;DHT22;31711;47.158;7.346;2022-09-09T07:56:16;18.80;99.90
45983;DHT22;31711;47.158;7.346;2022-09-09T07:58:47;18.90;99.90
45983;DHT22;31711;47.158;7.346;2022-09-09T08:04:02;19.50;99.90
45983;DHT22;31711;47.158;7.346;2022-09-09T08:06:30;19.50;99.90
45983;DHT22;31711;47.158;7.346;2022-09-09T08:08:56;19.30;99.90
45983;DHT22;31711;47.158;7.346;2022-09-09T08:11:26;19.30;99.90
45983;DHT22;31711;47.158;7.346;2022-09-09T08:13:53;19.30;99.90
45983;DHT22;31711;47.158;7.346;2022-09-09T08:16:24;19.50;99.90
45983;DHT22;31711;47.158;7.346;2022-09-09T08:18:51;19.50;99.90
45983;DHT22;31711;47.158;7.346;2022-09-09T08:21:23;19.70;99.90
45983;DHT22;31711;47.158;7.346;2022-09-09T08:23:51;20.00;99.90
45983;DHT22;31711;47.158;7.346;2022-09-09T08:26:20;20.00;99.90
45983;DHT22;31711;47.158;7.346;2022-09-09T08:28:49;20.10;99.90
45983;DHT22;31711;47.158;7.346;2022-09-09T08:33:50;20.30;99.90
45983;DHT22;31711;47.158;7.346;2022-09-09T08:36:19;19.80;99.90
45983;DHT22;31711;47.158;7.346;2022-09-09T08:38:56;19.70;99.90
45983;DHT22;31711;47.158;7.346;2022-09-09T08:53:06;20.10;99.90
45983;DHT22;31711;47.158;7.346;2022-09-09T08:55:50;20.10;99.90
45983;DHT22;31711;47.158;7.346;2022-09-09T08:58:29;20.10;99.90
45983;DHT22;31711;47.158;7.346;2022-09-09T09:04:32;19.60;99.90
45983;DHT22;31711;47.158;7.346;2022-09-09T09:12:20;19.80;99.90
45983;DHT22;31711;47.158;7.346;2022-09-09T09:14:48;19.70;99.90
45983;DHT22;31711;47.158;7.346;2022-09-09T09:17:20;19.50;99.90
45983;DHT22;31711;47.158;7.346;2022-09-09T09:19:48;19.60;99.90
45983;DHT22;31711;47.158;7.346;2022-09-09T09:22:22;19.60;99.90
45983;DHT22;31711;47.158;7.346;2022-09-09T09:25:03;19.70;99.90
45983;DHT22;31711;47.158;7.346;2022-09-09T09:30:23;20.30;99.90
45983;DHT22;31711;47.158;7.346;2022-09-09T09:32:54;20.30;99.90
45983;DHT22;31711;47.158;7.346;2022-09-09T09:35:21;20.40;99.90
45983;DHT22;31711;47.158;7.346;2022-09-09T09:37:48;20.40;99.90
45983;DHT22;31711;47.158;7.346;2022-09-09T09:40:15;20.20;99.90
45983;DHT22;31711;47.158;7.346;2022-09-09T09:43:01;20.10;99.90
45983;DHT22;31711;47.158;7.346;2022-09-09T09:45:28;20.20;99.90
45983;DHT22;31711;47.158;7.346;2022-09-09T09:48:03;20.20;99.90
45983;DHT22;31711;47.158;7.346;2022-09-09T09:50:30;20.10;99.90
45983;DHT22;31711;47.158;7.346;2022-09-09T09:53:16;20.00;99.90
45983;DHT22;31711;47.158;7.346;2022-09-09T09:55:52;20.00;99.90
45983;DHT22;31711;47.158;7.346;2022-09-09T09:58:18;20.10;99.90
45983;DHT22;31711;47.158;7.346;2022-09-09T10:00:49;20.20;99.90
45983;DHT22;31711;47.158;7.346;2022-09-09T10:03:25;20.20;99.90
45983;DHT22;31711;47.158;7.346;2022-09-09T10:05:53;20.30;99.90
45983;DHT22;31711;47.158;7.346;2022-09-09T10:08:19;20.20;99.90
45983;DHT22;31711;47.158;7.346;2022-09-09T10:16:00;20.40;99.90
45983;DHT22;31711;47.158;7.346;2022-09-09T10:21:34;20.50;99.90
45983;DHT22;31711;47.158;7.346;2022-09-09T10:24:28;20.60;99.90
45983;DHT22;31711;47.158;7.346;2022-09-09T10:27:02;20.60;99.90
45983;DHT22;31711;47.158;7.346;2022-09-09T10:40:37;21.40;99.90
45983;DHT22;31711;47.158;7.346;2022-09-09T10:46:03;21.20;99.90
45983;DHT22;31711;47.158;7.346;2022-09-09T10:51:20;21.40;99.90
45983;DHT22;31711;47.158;7.346;2022-09-09T10:56:26;21.30;99.90
45983;DHT22;31711;47.158;7.346;2022-09-09T10:59:00;21.50;99.90
45983;DHT22;31711;47.158;7.346;2022-09-09T11:01:37;21.50;99.90
45983;DHT22;31711;47.158;7.346;2022-09-09T11:04:25;21.60;99.90
45983;DHT22;31711;47.158;7.346;2022-09-09T11:06:54;21.70;99.90
45983;DHT22;31711;47.158;7.346;2022-09-09T11:09:28;21.70;99.90
45983;DHT22;31711;47.158;7.346;2022-09-09T11:11:57;21.40;99.90
45983;DHT22;31711;47.158;7.346;2022-09-09T11:15:04;21.40;99.90
45983;DHT22;31711;47.158;7.346;2022-09-09T11:17:41;21.70;99.90
45983;DHT22;31711;47.158;7.346;2022-09-09T11:20:13;21.70;99.90
45983;DHT22;31711;47.158;7.346;2022-09-09T11:25:31;22.10;99.90
45983;DHT22;31711;47.158;7.346;2022-09-09T11:34:32;22.10;99.00
45983;DHT22;31711;47.158;7.346;2022-09-09T11:39:50;21.90;98.90
45983;DHT22;31711;47.158;7.346;2022-09-09T11:42:23;21.90;99.90
45983;DHT22;31711;47.158;7.346;2022-09-09T11:44:50;21.80;99.70
45983;DHT22;31711;47.158;7.346;2022-09-09T11:47:24;21.90;99.00
45983;DHT22;31711;47.158;7.346;2022-09-09T11:49:52;21.70;98.60
45983;DHT22;31711;47.158;7.346;2022-09-09T11:52:22;21.50;97.20
45983;DHT22;31711;47.158;7.346;2022-09-09T11:54:49;21.50;97.80
45983;DHT22;31711;47.158;7.346;2022-09-09T11:57:32;21.50;99.20
45983;DHT22;31711;47.158;7.346;2022-09-09T11:59:58;21.90;99.60
45983;DHT22;31711;47.158;7.346;2022-09-09T12:02:28;22.20;99.70
45983;DHT22;31711;47.158;7.346;2022-09-09T12:05:08;22.00;98.40
45983;DHT22;31711;47.158;7.346;2022-09-09T12:07:52;22.20;99.90
45983;DHT22;31711;47.158;7.346;2022-09-09T12:10:29;22.10;99.20
45983;DHT22;31711;47.158;7.346;2022-09-09T12:12:55;22.00;98.60
45983;DHT22;31711;47.158;7.346;2022-09-09T12:15:33;21.80;99.50
45983;DHT22;31711;47.158;7.346;2022-09-09T12:17:59;22.30;99.30
45983;DHT22;31711;47.158;7.346;2022-09-09T12:20:34;22.70;98.10
45983;DHT22;31711;47.158;7.346;2022-09-09T12:28:58;23.30;99.00
45983;DHT22;31711;47.158;7.346;2022-09-09T12:34:41;23.30;97.60
45983;DHT22;31711;47.158;7.346;2022-09-09T12:37:29;22.70;99.00
45983;DHT22;31711;47.158;7.346;2022-09-09T12:40:03;22.80;97.20
45983;DHT22;31711;47.158;7.346;2022-09-09T12:42:29;22.40;97.90
45983;DHT22;31711;47.158;7.346;2022-09-09T12:44:58;22.40;97.90
45983;DHT22;31711;47.158;7.346;2022-09-09T12:47:47;22.50;98.50
45983;DHT22;31711;47.158;7.346;2022-09-09T12:50:17;22.80;98.00
45983;DHT22;31711;47.158;7.346;2022-09-09T12:52:44;22.60;98.70
45983;DHT22;31711;47.158;7.346;2022-09-09T12:55:20;22.70;98.40
45983;DHT22;31711;47.158;7.346;2022-09-09T12:57:48;22.30;97.60
45983;DHT22;31711;47.158;7.346;2022-09-09T13:00:24;22.20;98.40
45983;DHT22;31711;47.158;7.346;2022-09-09T13:02:52;22.10;98.80
45983;DHT22;31711;47.158;7.346;2022-09-09T13:05:26;22.40;97.40
45983;DHT22;31711;47.158;7.346;2022-09-09T13:08:00;22.80;98.50
45983;DHT22;31711;47.158;7.346;2022-09-09T13:10:31;23.00;97.40
45983;DHT22;31711;47.158;7.346;2022-09-09T13:12:59;23.00;97.60
45983;DHT22;31711;47.158;7.346;2022-09-09T13:15:28;22.60;97.30
45983;DHT22;31711;47.158;7.346;2022-09-09T13:18:03;22.90;98.20
45983;DHT22;31711;47.158;7.346;2022-09-09T13:20:30;22.60;96.00
45983;DHT22;31711;47.158;7.346;2022-09-09T13:22:56;22.70;97.00
45983;DHT22;31711;47.158;7.346;2022-09-09T13:25:26;23.10;97.30
45983;DHT22;31711;47.158;7.346;2022-09-09T13:33:29;23.00;96.00
45983;DHT22;31711;47.158;7.346;2022-09-09T13:35:57;23.20;97.40
45983;DHT22;31711;47.158;7.346;2022-09-09T13:38:24;22.90;95.40
45983;DHT22;31711;47.158;7.346;2022-09-09T13:41:04;22.50;95.80
45983;DHT22;31711;47.158;7.346;2022-09-09T13:43:44;22.80;96.80
45983;DHT22;31711;47.158;7.346;2022-09-09T13:46:39;22.60;95.90
45983;DHT22;31711;47.158;7.346;2022-09-09T13:51:41;23.40;96.90
45983;DHT22;31711;47.158;7.346;2022-09-09T13:54:11;23.50;95.30
45983;DHT22;31711;47.158;7.346;2022-09-09T13:56:39;23.10;96.40
45983;DHT22;31711;47.158;7.346;2022-09-09T13:59:10;22.80;96.50
45983;DHT22;31711;47.158;7.346;2022-09-09T14:01:36;22.70;97.40
45983;DHT22;31711;47.158;7.346;2022-09-09T14:04:03;22.80;97.00
45983;DHT22;31711;47.158;7.346;2022-09-09T14:06:30;23.00;96.80
45983;DHT22;31711;47.158;7.346;2022-09-09T14:08:58;22.80;95.40
45983;DHT22;31711;47.158;7.346;2022-09-09T14:11:24;23.00;94.80
45983;DHT22;31711;47.158;7.346;2022-09-09T14:13:50;22.80;94.20
45983;DHT22;31711;47.158;7.346;2022-09-09T14:16:17;22.70;95.20
45983;DHT22;31711;47.158;7.346;2022-09-09T14:18:46;22.60;96.10
45983;DHT22;31711;47.158;7.346;2022-09-09T14:21:12;22.50;96.20
45983;DHT22;31711;47.158;7.346;2022-09-09T14:23:38;22.60;96.10
45983;DHT22;31711;47.158;7.346;2022-09-09T14:26:05;22.80;95.90
45983;DHT22;31711;47.158;7.346;2022-09-09T14:28:32;22.90;94.90
45983;DHT22;31711;47.158;7.346;2022-09-09T14:31:00;22.70;94.40
45983;DHT22;31711;47.158;7.346;2022-09-09T14:33:27;22.70;93.90
45983;DHT22;31711;47.158;7.346;2022-09-09T14:35:58;22.70;94.60
45983;DHT22;31711;47.158;7.346;2022-09-09T14:38:25;22.60;94.90
45983;DHT22;31711;47.158;7.346;2022-09-09T14:40:51;22.70;95.00
45983;DHT22;31711;47.158;7.346;2022-09-09T14:43:17;22.70;93.60
45983;DHT22;31711;47.158;7.346;2022-09-09T14:45:42;22.70;94.10
45983;DHT22;31711;47.158;7.346;2022-09-09T14:48:09;22.60;94.40
45983;DHT22;31711;47.158;7.346;2022-09-09T14:50:35;22.40;93.90
45983;DHT22;31711;47.158;7.346;2022-09-09T14:53:05;22.30;94.50
45983;DHT22;31711;47.158;7.346;2022-09-09T14:55:31;22.30;95.10
45983;DHT22;31711;47.158;7.346;2022-09-09T14:57:57;22.30;94.60
45983;DHT22;31711;47.158;7.346;2022-09-09T15:00:24;22.30;94.90
45983;DHT22;31711;47.158;7.346;2022-09-09T15:02:54;22.20;95.10
45983;DHT22;31711;47.158;7.346;2022-09-09T15:05:21;22.00;95.40
45983;DHT22;31711;47.158;7.346;2022-09-09T15:07:47;21.80;95.80
45983;DHT22;31711;47.158;7.346;2022-09-09T15:10:14;21.70;96.10
45983;DHT22;31711;47.158;7.346;2022-09-09T15:12:40;21.70;95.40
45983;DHT22;31711;47.158;7.346;2022-09-09T15:15:08;21.70;95.70
45983;DHT22;31711;47.158;7.346;2022-09-09T15:17:34;21.50;95.80
45983;DHT22;31711;47.158;7.346;2022-09-09T15:20:01;21.40;96.20
45983;DHT22;31711;47.158;7.346;2022-09-09T15:22:28;21.20;96.50
45983;DHT22;31711;47.158;7.346;2022-09-09T15:24:54;21.10;96.70
45983;DHT22;31711;47.158;7.346;2022-09-09T15:27:20;21.10;97.00
45983;DHT22;31711;47.158;7.346;2022-09-09T15:29:46;21.10;97.70
45983;DHT22;31711;47.158;7.346;2022-09-09T15:32:13;21.00;97.20
45983;DHT22;31711;47.158;7.346;2022-09-09T15:34:38;20.90;97.50
45983;DHT22;31711;47.158;7.346;2022-09-09T15:37:05;20.80;97.40
45983;DHT22;31711;47.158;7.346;2022-09-09T15:39:32;20.70;97.60
45983;DHT22;31711;47.158;7.346;2022-09-09T15:41:58;20.60;97.90
45983;DHT22;31711;47.158;7.346;2022-09-09T15:44:23;20.60;97.10
45983;DHT22;31711;47.158;7.346;2022-09-09T15:46:52;20.50;97.40
45983;DHT22;31711;47.158;7.346;2022-09-09T15:49:23;20.40;97.00
45983;DHT22;31711;47.158;7.346;2022-09-09T15:51:57;20.20;97.50
45983;DHT22;31711;47.158;7.346;2022-09-09T15:54:25;19.70;99.00
45983;DHT22;31711;47.158;7.346;2022-09-09T15:56:53;19.10;99.90
45983;DHT22;31711;47.158;7.346;2022-09-09T15:59:22;18.60;99.90
45983;DHT22;31711;47.158;7.346;2022-09-09T16:01:48;18.00;99.90
45983;DHT22;31711;47.158;7.346;2022-09-09T16:04:20;17.60;99.90
45983;DHT22;31711;47.158;7.346;2022-09-09T16:06:50;17.30;99.90
45983;DHT22;31711;47.158;7.346;2022-09-09T16:09:16;17.10;99.90
45983;DHT22;31711;47.158;7.346;2022-09-09T16:11:42;17.00;99.90
45983;DHT22;31711;47.158;7.346;2022-09-09T16:14:09;17.00;99.90
45983;DHT22;31711;47.158;7.346;2022-09-09T16:16:35;16.90;99.90
45983;DHT22;31711;47.158;7.346;2022-09-09T16:19:07;16.80;99.90
45983;DHT22;31711;47.158;7.346;2022-09-09T16:21:46;16.70;99.90
45983;DHT22;31711;47.158;7.346;2022-09-09T16:24:15;16.50;99.90
45983;DHT22;31711;47.158;7.346;2022-09-09T16:26:43;16.50;99.90
45983;DHT22;31711;47.158;7.346;2022-09-09T16:29:13;16.30;99.90
45983;DHT22;31711;47.158;7.346;2022-09-09T16:31:40;16.20;99.90
45983;DHT22;31711;47.158;7.346;2022-09-09T16:34:07;16.10;99.90
45983;DHT22;31711;47.158;7.346;2022-09-09T16:36:36;16.00;99.90
45983;DHT22;31711;47.158;7.346;2022-09-09T16:39:04;16.00;99.90
45983;DHT22;31711;47.158;7.346;2022-09-09T16:41:31;15.90;99.90
45983;DHT22;31711;47.158;7.346;2022-09-09T16:43:59;16.00;99.90
45983;DHT22;31711;47.158;7.346;2022-09-09T16:46:27;16.00;99.90
45983;DHT22;31711;47.158;7.346;2022-09-09T16:48:56;15.90;99.90
45983;DHT22;31711;47.158;7.346;2022-09-09T16:51:27;15.80;99.90
45983;DHT22;31711;47.158;7.346;2022-09-09T16:53:54;15.90;99.90
45983;DHT22;31711;47.158;7.346;2022-09-09T16:56:23;15.90;99.90
45983;DHT22;31711;47.158;7.346;2022-09-09T16:58:54;15.90;99.90
45983;DHT22;31711;47.158;7.346;2022-09-09T17:01:32;15.90;99.90
45983;DHT22;31711;47.158;7.346;2022-09-09T17:04:00;16.10;99.90
45983;DHT22;31711;47.158;7.346;2022-09-09T17:06:28;16.00;99.90
45983;DHT22;31711;47.158;7.346;2022-09-09T17:08:59;16.00;99.90
45983;DHT22;31711;47.158;7.346;2022-09-09T17:11:27;16.00;99.90
45983;DHT22;31711;47.158;7.346;2022-09-09T17:13:54;16.00;99.90
45983;DHT22;31711;47.158;7.346;2022-09-09T17:16:22;16.10;99.90
45983;DHT22;31711;47.158;7.346;2022-09-09T17:18:49;16.00;99.90
45983;DHT22;31711;47.158;7.346;2022-09-09T17:21:17;16.00;99.90
45983;DHT22;31711;47.158;7.346;2022-09-09T17:23:44;16.10;99.90
45983;DHT22;31711;47.158;7.346;2022-09-09T17:26:12;16.00;99.90
45983;DHT22;31711;47.158;7.346;2022-09-09T17:28:40;15.90;99.90
45983;DHT22;31711;47.158;7.346;2022-09-09T17:31:08;15.90;99.90
45983;DHT22;31711;47.158;7.346;2022-09-09T17:33:39;15.80;99.90
45983;DHT22;31711;47.158;7.346;2022-09-09T17:38:42;15.90;99.90
45983;DHT22;31711;47.158;7.346;2022-09-09T17:41:14;16.00;99.90
45983;DHT22;31711;47.158;7.346;2022-09-09T17:43:40;16.00;99.90